sensor_id;sensor_type;location;lat;lon;timestamp;temperature;humidity
71184;DHT22;58887;51.980;4.464;2023-04-03T00:02:19;5.90;68.80
71184;DHT22;58887;51.980;4.464;2023-04-03T00:04:44;5.89;68.68
71184;DHT22;58887;51.980;4.464;2023-04-03T00:07:11;5.83;68.79
71184;DHT22;58887;51.980;4.464;2023-04-03T00:09:39;5.77;69.02
71184;DHT22;58887;51.980;4.464;2023-04-03T00:12:05;5.74;69.07
71184;DHT22;58887;51.980;4.464;2023-04-03T00:14:30;5.71;69.18
71184;DHT22;58887;51.980;4.464;2023-04-03T00:16:57;5.59;69.46
71184;DHT22;58887;51.980;4.464;2023-04-03T00:19:22;5.53;69.89
71184;DHT22;58887;51.980;4.464;2023-04-03T00:21:48;5.52;69.73
71184;DHT22;58887;51.980;4.464;2023-04-03T00:24:13;5.57;69.43
71184;DHT22;58887;51.980;4.464;2023-04-03T00:26:39;5.57;69.20
71184;DHT22;58887;51.980;4.464;2023-04-03T00:29:04;5.53;69.46
71184;DHT22;58887;51.980;4.464;2023-04-03T00:31:30;5.55;69.42
71184;DHT22;58887;51.980;4.464;2023-04-03T00:33:55;5.60;69.03
71184;DHT22;58887;51.980;4.464;2023-04-03T00:36:23;5.56;69.00
71184;DHT22;58887;51.980;4.464;2023-04-03T00:38:48;5.47;69.16
71184;DHT22;58887;51.980;4.464;2023-04-03T00:41:14;5.42;69.34
71184;DHT22;58887;51.980;4.464;2023-04-03T00:43:39;5.43;69.43
71184;DHT22;58887;51.980;4.464;2023-04-03T00:46:06;5.43;69.16
71184;DHT22;58887;51.980;4.464;2023-04-03T00:48:40;5.39;69.50
71184;DHT22;58887;51.980;4.464;2023-04-03T00:51:12;5.39;69.24
71184;DHT22;58887;51.980;4.464;2023-04-03T00:53:49;5.42;68.96
71184;DHT22;58887;51.980;4.464;2023-04-03T00:56:19;5.46;68.82
71184;DHT22;58887;51.980;4.464;2023-04-03T00:58:53;5.35;69.17
71184;DHT22;58887;51.980;4.464;2023-04-03T01:01:24;5.32;68.98
71184;DHT22;58887;51.980;4.464;2023-04-03T01:03:50;5.28;69.08
71184;DHT22;58887;51.980;4.464;2023-04-03T01:06:19;5.29;68.85
71184;DHT22;58887;51.980;4.464;2023-04-03T01:08:49;5.26;68.84
71184;DHT22;58887;51.980;4.464;2023-04-03T01:11:15;5.19;68.98
71184;DHT22;58887;51.980;4.464;2023-04-03T01:13:41;5.11;69.22
71184;DHT22;58887;51.980;4.464;2023-04-03T01:16:09;5.11;69.07
71184;DHT22;58887;51.980;4.464;2023-04-03T01:18:39;5.11;69.48
71184;DHT22;58887;51.980;4.464;2023-04-03T01:26:41;5.05;69.20
71184;DHT22;58887;51.980;4.464;2023-04-03T01:29:07;5.12;69.24
71184;DHT22;58887;51.980;4.464;2023-04-03T01:34:02;4.95;69.51
71184;DHT22;58887;51.980;4.464;2023-04-03T01:36:31;5.02;69.22
71184;DHT22;58887;51.980;4.464;2023-04-03T01:38:59;5.04;69.22
71184;DHT22;58887;51.980;4.464;2023-04-03T01:41:25;5.01;68.99
71184;DHT22;58887;51.980;4.464;2023-04-03T01:43:52;4.99;69.23
71184;DHT22;58887;51.980;4.464;2023-04-03T01:46:19;4.99;69.08
71184;DHT22;58887;51.980;4.464;2023-04-03T01:48:45;4.94;69.20
71184;DHT22;58887;51.980;4.464;2023-04-03T01:51:11;4.98;69.26
71184;DHT22;58887;51.980;4.464;2023-04-03T01:53:37;4.95;69.26
71184;DHT22;58887;51.980;4.464;2023-04-03T01:56:03;4.98;69.16
71184;DHT22;58887;51.980;4.464;2023-04-03T01:58:28;4.97;69.06
71184;DHT22;58887;51.980;4.464;2023-04-03T02:00:54;4.91;69.28
71184;DHT22;58887;51.980;4.464;2023-04-03T02:03:20;4.78;69.58
71184;DHT22;58887;51.980;4.464;2023-04-03T02:05:49;4.84;69.66
71184;DHT22;58887;51.980;4.464;2023-04-03T02:08:15;4.80;69.71
71184;DHT22;58887;51.980;4.464;2023-04-03T02:10:43;4.71;69.74
71184;DHT22;58887;51.980;4.464;2023-04-03T02:13:10;4.71;69.81
71184;DHT22;58887;51.980;4.464;2023-04-03T02:15:38;4.71;69.81
71184;DHT22;58887;51.980;4.464;2023-04-03T02:18:04;4.64;69.86
71184;DHT22;58887;51.980;4.464;2023-04-03T02:20:29;4.57;70.09
71184;DHT22;58887;51.980;4.464;2023-04-03T02:22:56;4.54;70.17
71184;DHT22;58887;51.980;4.464;2023-04-03T02:25:21;4.46;70.24
71184;DHT22;58887;51.980;4.464;2023-04-03T02:27:47;4.43;70.58
71184;DHT22;58887;51.980;4.464;2023-04-03T02:30:12;4.39;70.74
71184;DHT22;58887;51.980;4.464;2023-04-03T02:32:40;4.35;71.32
71184;DHT22;58887;51.980;4.464;2023-04-03T02:35:06;4.36;71.19
71184;DHT22;58887;51.980;4.464;2023-04-03T02:37:32;4.33;71.03
71184;DHT22;58887;51.980;4.464;2023-04-03T02:39:59;4.25;71.48
71184;DHT22;58887;51.980;4.464;2023-04-03T02:42:24;4.22;71.57
71184;DHT22;58887;51.980;4.464;2023-04-03T02:44:50;4.13;71.67
71184;DHT22;58887;51.980;4.464;2023-04-03T02:47:16;4.15;71.61
71184;DHT22;58887;51.980;4.464;2023-04-03T02:49:41;4.06;71.74
71184;DHT22;58887;51.980;4.464;2023-04-03T02:52:10;3.96;72.18
71184;DHT22;58887;51.980;4.464;2023-04-03T02:54:42;3.91;72.49
71184;DHT22;58887;51.980;4.464;2023-04-03T02:57:09;3.91;72.52
71184;DHT22;58887;51.980;4.464;2023-04-03T02:59:36;3.91;72.70
71184;DHT22;58887;51.980;4.464;2023-04-03T03:02:02;3.84;72.87
71184;DHT22;58887;51.980;4.464;2023-04-03T03:04:28;3.79;72.82
71184;DHT22;58887;51.980;4.464;2023-04-03T03:06:56;3.78;72.96
71184;DHT22;58887;51.980;4.464;2023-04-03T03:09:22;3.67;73.03
71184;DHT22;58887;51.980;4.464;2023-04-03T03:11:48;3.64;73.58
71184;DHT22;58887;51.980;4.464;2023-04-03T03:14:13;3.67;73.66
71184;DHT22;58887;51.980;4.464;2023-04-03T03:16:39;3.67;73.78
71184;DHT22;58887;51.980;4.464;2023-04-03T03:19:05;3.61;73.55
71184;DHT22;58887;51.980;4.464;2023-04-03T03:21:32;3.53;73.68
71184;DHT22;58887;51.980;4.464;2023-04-03T03:23:57;3.53;74.14
71184;DHT22;58887;51.980;4.464;2023-04-03T03:26:22;3.50;74.07
71184;DHT22;58887;51.980;4.464;2023-04-03T03:28:49;3.50;73.85
71184;DHT22;58887;51.980;4.464;2023-04-03T03:31:14;3.47;73.81
71184;DHT22;58887;51.980;4.464;2023-04-03T03:33:41;3.38;73.95
71184;DHT22;58887;51.980;4.464;2023-04-03T03:36:07;3.36;73.99
71184;DHT22;58887;51.980;4.464;2023-04-03T03:38:33;3.33;74.35
71184;DHT22;58887;51.980;4.464;2023-04-03T03:40:59;3.33;74.38
71184;DHT22;58887;51.980;4.464;2023-04-03T03:43:25;3.30;74.70
71184;DHT22;58887;51.980;4.464;2023-04-03T03:45:53;3.26;74.88
71184;DHT22;58887;51.980;4.464;2023-04-03T03:48:23;3.27;75.07
71184;DHT22;58887;51.980;4.464;2023-04-03T03:50:49;3.24;75.29
71184;DHT22;58887;51.980;4.464;2023-04-03T03:53:17;3.27;75.29
71184;DHT22;58887;51.980;4.464;2023-04-03T03:55:43;3.23;75.25
71184;DHT22;58887;51.980;4.464;2023-04-03T03:58:09;3.23;75.25
71184;DHT22;58887;51.980;4.464;2023-04-03T04:00:35;3.19;75.35
71184;DHT22;58887;51.980;4.464;2023-04-03T04:03:01;3.17;75.41
71184;DHT22;58887;51.980;4.464;2023-04-03T04:05:26;3.20;75.64
71184;DHT22;58887;51.980;4.464;2023-04-03T04:07:52;3.19;75.52
71184;DHT22;58887;51.980;4.464;2023-04-03T04:10:17;3.17;75.46
71184;DHT22;58887;51.980;4.464;2023-04-03T04:12:43;3.16;75.28
71184;DHT22;58887;51.980;4.464;2023-04-03T04:15:09;3.13;75.40
71184;DHT22;58887;51.980;4.464;2023-04-03T04:17:34;3.16;75.56
71184;DHT22;58887;51.980;4.464;2023-04-03T04:20:01;3.15;75.62
71184;DHT22;58887;51.980;4.464;2023-04-03T04:22:26;3.17;75.54
71184;DHT22;58887;51.980;4.464;2023-04-03T04:24:52;3.16;75.70
71184;DHT22;58887;51.980;4.464;2023-04-03T04:27:17;3.13;75.80
71184;DHT22;58887;51.980;4.464;2023-04-03T04:29:43;3.15;75.69
71184;DHT22;58887;51.980;4.464;2023-04-03T04:32:08;3.13;75.86
71184;DHT22;58887;51.980;4.464;2023-04-03T04:34:34;3.15;75.77
71184;DHT22;58887;51.980;4.464;2023-04-03T04:36:59;3.16;75.79
71184;DHT22;58887;51.980;4.464;2023-04-03T04:39:25;3.17;75.68
71184;DHT22;58887;51.980;4.464;2023-04-03T04:41:50;3.07;76.04
71184;DHT22;58887;51.980;4.464;2023-04-03T04:44:17;3.06;76.11
71184;DHT22;58887;51.980;4.464;2023-04-03T04:46:43;3.05;76.01
71184;DHT22;58887;51.980;4.464;2023-04-03T04:49:08;3.03;76.14
71184;DHT22;58887;51.980;4.464;2023-04-03T04:51:36;3.09;76.12
71184;DHT22;58887;51.980;4.464;2023-04-03T04:54:01;3.09;76.06
71184;DHT22;58887;51.980;4.464;2023-04-03T04:56:28;3.03;75.93
71184;DHT22;58887;51.980;4.464;2023-04-03T04:58:56;3.02;75.93
71184;DHT22;58887;51.980;4.464;2023-04-03T05:01:22;2.91;76.46
71184;DHT22;58887;51.980;4.464;2023-04-03T05:03:47;2.89;76.55
71184;DHT22;58887;51.980;4.464;2023-04-03T05:06:13;2.95;76.68
71184;DHT22;58887;51.980;4.464;2023-04-03T05:08:39;2.91;76.53
71184;DHT22;58887;51.980;4.464;2023-04-03T05:11:05;2.85;76.29
71184;DHT22;58887;51.980;4.464;2023-04-03T05:13:31;2.85;76.44
71184;DHT22;58887;51.980;4.464;2023-04-03T05:15:56;2.82;76.61
71184;DHT22;58887;51.980;4.464;2023-04-03T05:18:22;2.89;76.70
71184;DHT22;58887;51.980;4.464;2023-04-03T05:20:51;2.92;76.65
71184;DHT22;58887;51.980;4.464;2023-04-03T05:23:18;2.89;76.71
71184;DHT22;58887;51.980;4.464;2023-04-03T05:25:44;2.92;76.92
71184;DHT22;58887;51.980;4.464;2023-04-03T05:28:15;2.88;76.85
71184;DHT22;58887;51.980;4.464;2023-04-03T05:30:40;2.86;77.00
71184;DHT22;58887;51.980;4.464;2023-04-03T05:33:06;2.92;76.84
71184;DHT22;58887;51.980;4.464;2023-04-03T05:35:32;2.82;77.28
71184;DHT22;58887;51.980;4.464;2023-04-03T05:38:05;2.88;77.27
71184;DHT22;58887;51.980;4.464;2023-04-03T05:40:32;2.88;77.45
71184;DHT22;58887;51.980;4.464;2023-04-03T05:42:57;2.91;77.51
71184;DHT22;58887;51.980;4.464;2023-04-03T05:45:23;3.03;77.41
71184;DHT22;58887;51.980;4.464;2023-04-03T05:47:48;3.03;77.41
71184;DHT22;58887;51.980;4.464;2023-04-03T05:50:14;3.07;77.35
71184;DHT22;58887;51.980;4.464;2023-04-03T05:52:44;3.02;77.29
71184;DHT22;58887;51.980;4.464;2023-04-03T05:55:10;3.17;77.43
71184;DHT22;58887;51.980;4.464;2023-04-03T05:57:36;3.20;77.18
71184;DHT22;58887;51.980;4.464;2023-04-03T06:00:11;3.26;77.06
71184;DHT22;58887;51.980;4.464;2023-04-03T06:02:37;3.31;76.98
71184;DHT22;58887;51.980;4.464;2023-04-03T06:05:03;3.37;76.91
71184;DHT22;58887;51.980;4.464;2023-04-03T06:07:29;3.41;76.87
71184;DHT22;58887;51.980;4.464;2023-04-03T06:09:57;3.40;76.92
71184;DHT22;58887;51.980;4.464;2023-04-03T06:12:24;3.44;76.81
71184;DHT22;58887;51.980;4.464;2023-04-03T06:14:49;3.46;77.00
71184;DHT22;58887;51.980;4.464;2023-04-03T06:17:16;3.53;76.83
71184;DHT22;58887;51.980;4.464;2023-04-03T06:19:44;3.58;76.87
71184;DHT22;58887;51.980;4.464;2023-04-03T06:22:10;3.58;76.79
71184;DHT22;58887;51.980;4.464;2023-04-03T06:24:37;3.64;77.01
71184;DHT22;58887;51.980;4.464;2023-04-03T06:27:03;3.64;77.47
71184;DHT22;58887;51.980;4.464;2023-04-03T06:29:28;3.84;76.76
71184;DHT22;58887;51.980;4.464;2023-04-03T06:31:54;3.82;76.80
71184;DHT22;58887;51.980;4.464;2023-04-03T06:34:20;3.96;76.46
71184;DHT22;58887;51.980;4.464;2023-04-03T06:36:45;4.02;76.31
71184;DHT22;58887;51.980;4.464;2023-04-03T06:39:15;4.15;75.51
71184;DHT22;58887;51.980;4.464;2023-04-03T06:41:41;4.26;74.69
71184;DHT22;58887;51.980;4.464;2023-04-03T06:44:07;4.26;74.92
71184;DHT22;58887;51.980;4.464;2023-04-03T06:46:37;4.30;74.53
71184;DHT22;58887;51.980;4.464;2023-04-03T06:49:03;4.32;74.27
71184;DHT22;58887;51.980;4.464;2023-04-03T06:51:30;4.29;74.26
71184;DHT22;58887;51.980;4.464;2023-04-03T06:53:57;4.37;73.80
71184;DHT22;58887;51.980;4.464;2023-04-03T06:56:23;4.35;74.04
71184;DHT22;58887;51.980;4.464;2023-04-03T06:58:49;4.56;73.33
71184;DHT22;58887;51.980;4.464;2023-04-03T07:01:17;4.71;73.30
71184;DHT22;58887;51.980;4.464;2023-04-03T07:03:45;4.88;72.70
71184;DHT22;58887;51.980;4.464;2023-04-03T07:06:14;4.88;72.20
71184;DHT22;58887;51.980;4.464;2023-04-03T07:08:40;5.01;72.23
71184;DHT22;58887;51.980;4.464;2023-04-03T07:11:06;5.12;71.91
71184;DHT22;58887;51.980;4.464;2023-04-03T07:13:32;5.24;72.20
71184;DHT22;58887;51.980;4.464;2023-04-03T07:15:58;5.26;71.43
71184;DHT22;58887;51.980;4.464;2023-04-03T07:18:23;5.43;70.89
71184;DHT22;58887;51.980;4.464;2023-04-03T07:20:49;5.55;69.93
71184;DHT22;58887;51.980;4.464;2023-04-03T07:23:15;5.66;69.32
71184;DHT22;58887;51.980;4.464;2023-04-03T07:25:45;5.63;69.74
71184;DHT22;58887;51.980;4.464;2023-04-03T07:28:11;5.78;69.78
71184;DHT22;58887;51.980;4.464;2023-04-03T07:31:04;5.98;69.06
71184;DHT22;58887;51.980;4.464;2023-04-03T07:33:30;6.00;67.73
71184;DHT22;58887;51.980;4.464;2023-04-03T07:35:56;6.04;67.66
71184;DHT22;58887;51.980;4.464;2023-04-03T07:38:22;5.94;67.70
71184;DHT22;58887;51.980;4.464;2023-04-03T07:40:50;6.07;67.91
71184;DHT22;58887;51.980;4.464;2023-04-03T07:43:17;6.32;68.24
71184;DHT22;58887;51.980;4.464;2023-04-03T07:45:43;6.28;66.72
71184;DHT22;58887;51.980;4.464;2023-04-03T07:48:12;6.42;66.47
71184;DHT22;58887;51.980;4.464;2023-04-03T07:50:40;6.55;66.52
71184;DHT22;58887;51.980;4.464;2023-04-03T07:53:06;6.48;65.66
71184;DHT22;58887;51.980;4.464;2023-04-03T07:55:32;6.86;65.57
71184;DHT22;58887;51.980;4.464;2023-04-03T07:57:58;7.08;64.14
71184;DHT22;58887;51.980;4.464;2023-04-03T08:00:23;7.31;64.18
71184;DHT22;58887;51.980;4.464;2023-04-03T08:02:50;7.45;62.53
71184;DHT22;58887;51.980;4.464;2023-04-03T08:05:20;7.69;63.34
71184;DHT22;58887;51.980;4.464;2023-04-03T08:07:52;7.65;61.72
71184;DHT22;58887;51.980;4.464;2023-04-03T08:10:17;7.76;62.46
71184;DHT22;58887;51.980;4.464;2023-04-03T08:12:46;7.75;61.32
71184;DHT22;58887;51.980;4.464;2023-04-03T08:15:11;7.96;61.94
71184;DHT22;58887;51.980;4.464;2023-04-03T08:17:37;8.29;59.64
71184;DHT22;58887;51.980;4.464;2023-04-03T08:20:04;8.67;59.28
71184;DHT22;58887;51.980;4.464;2023-04-03T08:22:32;9.22;56.39
71184;DHT22;58887;51.980;4.464;2023-04-03T08:24:58;9.46;56.81
71184;DHT22;58887;51.980;4.464;2023-04-03T08:27:24;9.73;55.66
71184;DHT22;58887;51.980;4.464;2023-04-03T08:29:49;9.75;56.51
71184;DHT22;58887;51.980;4.464;2023-04-03T08:32:16;10.02;54.20
71184;DHT22;58887;51.980;4.464;2023-04-03T08:34:42;10.21;53.44
71184;DHT22;58887;51.980;4.464;2023-04-03T08:37:07;10.28;52.40
71184;DHT22;58887;51.980;4.464;2023-04-03T08:39:33;10.03;52.47
71184;DHT22;58887;51.980;4.464;2023-04-03T08:42:05;10.59;51.83
71184;DHT22;58887;51.980;4.464;2023-04-03T08:45:08;10.84;50.98
71184;DHT22;58887;51.980;4.464;2023-04-03T08:47:47;11.28;49.21
71184;DHT22;58887;51.980;4.464;2023-04-03T08:50:22;11.51;49.10
71184;DHT22;58887;51.980;4.464;2023-04-03T08:52:55;11.63;47.94
71184;DHT22;58887;51.980;4.464;2023-04-03T08:55:34;11.99;46.93
71184;DHT22;58887;51.980;4.464;2023-04-03T08:58:05;11.18;46.14
71184;DHT22;58887;51.980;4.464;2023-04-03T09:03:25;12.30;46.82
71184;DHT22;58887;51.980;4.464;2023-04-03T09:06:01;12.58;44.52
71184;DHT22;58887;51.980;4.464;2023-04-03T09:17:10;12.95;39.80
71184;DHT22;58887;51.980;4.464;2023-04-03T09:24:59;13.02;39.45
71184;DHT22;58887;51.980;4.464;2023-04-03T09:27:26;13.15;39.86
71184;DHT22;58887;51.980;4.464;2023-04-03T09:29:55;13.47;37.11
71184;DHT22;58887;51.980;4.464;2023-04-03T09:32:28;14.06;35.46
71184;DHT22;58887;51.980;4.464;2023-04-03T09:35:19;13.78;36.29
71184;DHT22;58887;51.980;4.464;2023-04-03T09:40:47;13.42;38.16
71184;DHT22;58887;51.980;4.464;2023-04-03T09:45:43;14.24;33.01
71184;DHT22;58887;51.980;4.464;2023-04-03T09:53:39;13.92;33.32
71184;DHT22;58887;51.980;4.464;2023-04-03T09:58:46;14.42;32.18
71184;DHT22;58887;51.980;4.464;2023-04-03T10:06:41;14.40;32.63
71184;DHT22;58887;51.980;4.464;2023-04-03T10:14:24;14.90;33.07
71184;DHT22;58887;51.980;4.464;2023-04-03T10:22:23;14.79;31.57
71184;DHT22;58887;51.980;4.464;2023-04-03T10:27:31;14.42;30.00
71184;DHT22;58887;51.980;4.464;2023-04-03T10:30:30;15.00;31.25
71184;DHT22;58887;51.980;4.464;2023-04-03T10:41:13;15.81;30.71
71184;DHT22;58887;51.980;4.464;2023-04-03T10:43:53;14.88;29.73
71184;DHT22;58887;51.980;4.464;2023-04-03T10:46:28;16.50;31.76
71184;DHT22;58887;51.980;4.464;2023-04-03T10:54:43;18.28;25.96
71184;DHT22;58887;51.980;4.464;2023-04-03T10:57:13;18.06;27.10
71184;DHT22;58887;51.980;4.464;2023-04-03T10:59:47;17.80;26.09
71184;DHT22;58887;51.980;4.464;2023-04-03T11:02:55;17.78;27.57
71184;DHT22;58887;51.980;4.464;2023-04-03T11:11:18;17.75;25.30
71184;DHT22;58887;51.980;4.464;2023-04-03T11:14:23;17.78;26.05
71184;DHT22;58887;51.980;4.464;2023-04-03T11:17:11;18.11;25.33
71184;DHT22;58887;51.980;4.464;2023-04-03T11:22:52;16.41;27.88
71184;DHT22;58887;51.980;4.464;2023-04-03T11:25:24;16.95;26.90
71184;DHT22;58887;51.980;4.464;2023-04-03T11:28:05;15.54;25.03
71184;DHT22;58887;51.980;4.464;2023-04-03T11:36:56;17.98;24.52
71184;DHT22;58887;51.980;4.464;2023-04-03T11:39:31;18.28;24.84
71184;DHT22;58887;51.980;4.464;2023-04-03T11:47:56;18.80;24.48
71184;DHT22;58887;51.980;4.464;2023-04-03T11:50:45;18.94;24.06
71184;DHT22;58887;51.980;4.464;2023-04-03T11:53:36;18.38;22.06
71184;DHT22;58887;51.980;4.464;2023-04-03T12:01:47;18.57;20.75
71184;DHT22;58887;51.980;4.464;2023-04-03T12:04:15;18.32;22.56
71184;DHT22;58887;51.980;4.464;2023-04-03T12:07:00;18.19;22.38
71184;DHT22;58887;51.980;4.464;2023-04-03T12:12:39;20.01;21.98
71184;DHT22;58887;51.980;4.464;2023-04-03T12:21:09;18.60;23.09
71184;DHT22;58887;51.980;4.464;2023-04-03T12:23:36;18.60;20.16
71184;DHT22;58887;51.980;4.464;2023-04-03T12:26:28;19.49;20.45
71184;DHT22;58887;51.980;4.464;2023-04-03T12:28:55;19.75;20.08
71184;DHT22;58887;51.980;4.464;2023-04-03T12:31:25;19.25;20.84
71184;DHT22;58887;51.980;4.464;2023-04-03T12:37:21;19.17;19.96
71184;DHT22;58887;51.980;4.464;2023-04-03T12:45:22;18.55;23.02
71184;DHT22;58887;51.980;4.464;2023-04-03T12:47:49;19.22;22.88
71184;DHT22;58887;51.980;4.464;2023-04-03T12:50:24;19.19;24.40
71184;DHT22;58887;51.980;4.464;2023-04-03T12:53:01;18.70;22.13
71184;DHT22;58887;51.980;4.464;2023-04-03T12:55:28;18.55;24.48
71184;DHT22;58887;51.980;4.464;2023-04-03T12:57:54;18.16;23.24
71184;DHT22;58887;51.980;4.464;2023-04-03T13:02:49;17.40;25.02
71184;DHT22;58887;51.980;4.464;2023-04-03T13:05:19;18.36;22.78
71184;DHT22;58887;51.980;4.464;2023-04-03T13:07:56;19.24;22.21
71184;DHT22;58887;51.980;4.464;2023-04-03T13:10:23;19.66;23.57
71184;DHT22;58887;51.980;4.464;2023-04-03T13:12:50;19.00;22.01
71184;DHT22;58887;51.980;4.464;2023-04-03T13:15:39;17.41;23.10
71184;DHT22;58887;51.980;4.464;2023-04-03T13:18:05;18.29;23.65
71184;DHT22;58887;51.980;4.464;2023-04-03T13:20:35;18.11;23.45
71184;DHT22;58887;51.980;4.464;2023-04-03T13:23:16;17.61;23.99
71184;DHT22;58887;51.980;4.464;2023-04-03T13:25:45;18.36;25.49
71184;DHT22;58887;51.980;4.464;2023-04-03T13:28:15;17.46;24.63
71184;DHT22;58887;51.980;4.464;2023-04-03T13:31:04;18.67;25.04
71184;DHT22;58887;51.980;4.464;2023-04-03T13:33:34;19.25;23.97
71184;DHT22;58887;51.980;4.464;2023-04-03T13:36:21;19.21;23.78
71184;DHT22;58887;51.980;4.464;2023-04-03T13:39:00;18.39;23.87
71184;DHT22;58887;51.980;4.464;2023-04-03T13:41:39;18.56;25.85
71184;DHT22;58887;51.980;4.464;2023-04-03T13:46:51;19.68;24.68
71184;DHT22;58887;51.980;4.464;2023-04-03T13:49:38;20.10;23.45
71184;DHT22;58887;51.980;4.464;2023-04-03T13:52:24;20.20;23.29
71184;DHT22;58887;51.980;4.464;2023-04-03T13:54:57;19.11;22.28
71184;DHT22;58887;51.980;4.464;2023-04-03T13:57:23;19.32;22.84
71184;DHT22;58887;51.980;4.464;2023-04-03T13:59:48;18.80;23.48
71184;DHT22;58887;51.980;4.464;2023-04-03T14:02:20;18.52;23.35
71184;DHT22;58887;51.980;4.464;2023-04-03T14:04:52;18.26;23.32
71184;DHT22;58887;51.980;4.464;2023-04-03T14:07:22;18.67;25.36
71184;DHT22;58887;51.980;4.464;2023-04-03T14:09:48;19.75;23.57
71184;DHT22;58887;51.980;4.464;2023-04-03T14:12:27;20.49;22.48
71184;DHT22;58887;51.980;4.464;2023-04-03T14:14:54;20.92;23.42
71184;DHT22;58887;51.980;4.464;2023-04-03T14:17:25;20.64;22.23
71184;DHT22;58887;51.980;4.464;2023-04-03T14:19:53;19.90;22.99
71184;DHT22;58887;51.980;4.464;2023-04-03T14:24:48;21.00;24.31
71184;DHT22;58887;51.980;4.464;2023-04-03T14:29:49;21.19;22.34
71184;DHT22;58887;51.980;4.464;2023-04-03T14:32:17;21.51;22.54
71184;DHT22;58887;51.980;4.464;2023-04-03T14:34:43;20.98;23.50
71184;DHT22;58887;51.980;4.464;2023-04-03T14:37:22;20.74;22.99
71184;DHT22;58887;51.980;4.464;2023-04-03T14:39:48;21.30;23.40
71184;DHT22;58887;51.980;4.464;2023-04-03T14:42:21;21.56;22.26
71184;DHT22;58887;51.980;4.464;2023-04-03T14:44:47;21.05;22.05
71184;DHT22;58887;51.980;4.464;2023-04-03T14:47:24;20.61;22.92
71184;DHT22;58887;51.980;4.464;2023-04-03T14:49:50;20.99;22.24
71184;DHT22;58887;51.980;4.464;2023-04-03T14:52:23;19.56;22.37
71184;DHT22;58887;51.980;4.464;2023-04-03T14:54:50;19.69;24.10
71184;DHT22;58887;51.980;4.464;2023-04-03T14:57:16;20.03;23.40
71184;DHT22;58887;51.980;4.464;2023-04-03T14:59:43;20.89;24.54
71184;DHT22;58887;51.980;4.464;2023-04-03T15:02:28;21.23;22.85
71184;DHT22;58887;51.980;4.464;2023-04-03T15:04:55;21.25;21.57
71184;DHT22;58887;51.980;4.464;2023-04-03T15:07:25;20.98;22.01
71184;DHT22;58887;51.980;4.464;2023-04-03T15:09:51;20.85;23.18
71184;DHT22;58887;51.980;4.464;2023-04-03T15:12:17;20.55;22.42
71184;DHT22;58887;51.980;4.464;2023-04-03T15:14:43;20.99;22.92
71184;DHT22;58887;51.980;4.464;2023-04-03T15:17:17;21.19;22.59
71184;DHT22;58887;51.980;4.464;2023-04-03T15:19:46;21.57;22.03
71184;DHT22;58887;51.980;4.464;2023-04-03T15:22:17;21.81;22.77
71184;DHT22;58887;51.980;4.464;2023-04-03T15:24:43;21.81;21.42
71184;DHT22;58887;51.980;4.464;2023-04-03T15:27:10;21.07;22.21
71184;DHT22;58887;51.980;4.464;2023-04-03T15:29:36;19.76;23.50
71184;DHT22;58887;51.980;4.464;2023-04-03T15:32:03;19.52;22.90
71184;DHT22;58887;51.980;4.464;2023-04-03T15:34:29;19.62;23.46
71184;DHT22;58887;51.980;4.464;2023-04-03T15:36:55;19.99;24.27
71184;DHT22;58887;51.980;4.464;2023-04-03T15:39:21;19.80;23.97
71184;DHT22;58887;51.980;4.464;2023-04-03T15:41:49;19.90;25.62
71184;DHT22;58887;51.980;4.464;2023-04-03T15:44:14;20.57;22.45
71184;DHT22;58887;51.980;4.464;2023-04-03T15:46:43;20.55;24.04
71184;DHT22;58887;51.980;4.464;2023-04-03T15:49:09;19.66;23.04
71184;DHT22;58887;51.980;4.464;2023-04-03T15:51:35;19.41;24.36
71184;DHT22;58887;51.980;4.464;2023-04-03T15:54:01;19.65;24.07
71184;DHT22;58887;51.980;4.464;2023-04-03T15:56:27;18.48;24.36
71184;DHT22;58887;51.980;4.464;2023-04-03T15:58:52;18.60;24.73
71184;DHT22;58887;51.980;4.464;2023-04-03T16:01:18;18.63;25.33
71184;DHT22;58887;51.980;4.464;2023-04-03T16:03:44;18.40;25.33
71184;DHT22;58887;51.980;4.464;2023-04-03T16:06:17;18.55;24.62
71184;DHT22;58887;51.980;4.464;2023-04-03T16:08:47;18.76;24.97
71184;DHT22;58887;51.980;4.464;2023-04-03T16:11:14;18.63;23.97
71184;DHT22;58887;51.980;4.464;2023-04-03T16:13:41;18.64;24.09
71184;DHT22;58887;51.980;4.464;2023-04-03T16:16:07;18.76;24.50
71184;DHT22;58887;51.980;4.464;2023-04-03T16:18:34;18.76;24.22
71184;DHT22;58887;51.980;4.464;2023-04-03T16:21:00;18.24;24.42
71184;DHT22;58887;51.980;4.464;2023-04-03T16:23:26;18.08;25.20
71184;DHT22;58887;51.980;4.464;2023-04-03T16:25:52;17.77;26.00
71184;DHT22;58887;51.980;4.464;2023-04-03T16:28:18;17.84;25.27
71184;DHT22;58887;51.980;4.464;2023-04-03T16:30:47;17.32;25.83
71184;DHT22;58887;51.980;4.464;2023-04-03T16:33:14;17.36;26.21
71184;DHT22;58887;51.980;4.464;2023-04-03T16:35:40;16.91;27.56
71184;DHT22;58887;51.980;4.464;2023-04-03T16:38:07;15.34;28.48
71184;DHT22;58887;51.980;4.464;2023-04-03T16:40:33;13.97;30.05
71184;DHT22;58887;51.980;4.464;2023-04-03T16:43:02;13.40;30.48
71184;DHT22;58887;51.980;4.464;2023-04-03T16:45:30;12.74;31.49
71184;DHT22;58887;51.980;4.464;2023-04-03T16:47:55;12.36;32.43
71184;DHT22;58887;51.980;4.464;2023-04-03T16:50:21;12.16;33.76
71184;DHT22;58887;51.980;4.464;2023-04-03T16:52:46;12.00;34.24
71184;DHT22;58887;51.980;4.464;2023-04-03T16:55:12;11.75;34.14
71184;DHT22;58887;51.980;4.464;2023-04-03T16:57:37;11.82;34.16
71184;DHT22;58887;51.980;4.464;2023-04-03T17:00:04;11.70;33.88
71184;DHT22;58887;51.980;4.464;2023-04-03T17:02:31;11.42;34.89
71184;DHT22;58887;51.980;4.464;2023-04-03T17:05:14;11.43;35.35
71184;DHT22;58887;51.980;4.464;2023-04-03T17:08:03;11.21;36.95
71184;DHT22;58887;51.980;4.464;2023-04-03T17:10:47;11.18;36.87
71184;DHT22;58887;51.980;4.464;2023-04-03T17:13:20;11.12;36.29
71184;DHT22;58887;51.980;4.464;2023-04-03T17:15:48;11.12;36.82
71184;DHT22;58887;51.980;4.464;2023-04-03T17:18:17;10.81;36.57
71184;DHT22;58887;51.980;4.464;2023-04-03T17:20:45;10.79;37.26
71184;DHT22;58887;51.980;4.464;2023-04-03T17:23:19;10.60;37.62
71184;DHT22;58887;51.980;4.464;2023-04-03T17:25:46;10.49;38.58
71184;DHT22;58887;51.980;4.464;2023-04-03T17:28:12;10.39;38.71
71184;DHT22;58887;51.980;4.464;2023-04-03T17:30:40;10.45;38.59
71184;DHT22;58887;51.980;4.464;2023-04-03T17:33:05;10.45;39.29
71184;DHT22;58887;51.980;4.464;2023-04-03T17:35:31;10.33;39.70
71184;DHT22;58887;51.980;4.464;2023-04-03T17:38:06;10.36;40.37
71184;DHT22;58887;51.980;4.464;2023-04-03T17:40:34;10.15;40.41
71184;DHT22;58887;51.980;4.464;2023-04-03T17:43:23;10.16;41.26
71184;DHT22;58887;51.980;4.464;2023-04-03T17:45:48;10.21;40.80
71184;DHT22;58887;51.980;4.464;2023-04-03T17:48:32;9.95;40.02
71184;DHT22;58887;51.980;4.464;2023-04-03T17:51:11;9.92;40.38
71184;DHT22;58887;51.980;4.464;2023-04-03T17:53:38;9.90;40.67
71184;DHT22;58887;51.980;4.464;2023-04-03T17:56:22;9.85;40.74
71184;DHT22;58887;51.980;4.464;2023-04-03T17:58:50;9.80;41.77